Terminal Aerodrome Forecast
Issued by NWS

Home | Current Version | Previous Version | Text Only | Print | Product List | Glossary On
Versions: 1 2 3 4 5 6 7 8 9 10 11 12 13 14 15 16 17 18
845
FTUS43 KFGF 141123
TAFBJI
TAF
KBJI 141123Z 1412/1512 15011KT P6SM -SN OVC050
      TEMPO 1412/1415 3SM -SN OVC025
     FM141500 16011KT 3SM -SN OVC035
      TEMPO 1415/1417 1SM -SN OVC015
     FM142100 16007KT P6SM OVC015
     FM150400 19006KT P6SM OVC008=

USA.gov is the U.S. government's official web portal to all federal, state and local government web resources and services.